• Join FlightAware (Why Join?)
  • Login
  • US Flag 
02:11AM EST


 

Airport Tracker/Info


-or-


 

Live Flight TrackerFlight Track Log ✈ RPA3496 ✈ 12-May-2014 ✈ KLGA - KPIT

Flight Track Log - Related Links

Times and Time Zones

All times are in EDT time to prevent confusion due to time zone crossing. See the RPA3496 flight status page for this flight to view local times or setup timezone preferences in your user account.

Time Position Orientation Groundspeed Altitude Reporting Facility
EDT Latitude Longitude Course Direction KTS MPH feet Rate Location/Type
04:02PM 40.7667 -73.7667 49° Northeast 248 285 4,800  Level New York TRACON
04:03PM 40.8167 -73.8333 315° West 246 283 7,400 1,560 Climbing New York TRACON
04:04PM 40.8500 -73.9167 298° West 264 304 8,000 1,140 Climbing New York TRACON
04:05PM 40.7668 -74.4055 269° West  Level Estimated
04:05PM 40.8500 -74.0167 270° West 257 296 9,600  Level New York TRACON
04:06PM 40.7643 -74.5137 268° West  Level Estimated
04:06PM 40.8500 -74.1000 270° West 266 306 12,200  Level New York TRACON
04:07PM 40.8500 -74.2167 270° West 302 348 14,300 1,920 Climbing New York TRACON
04:08PM 40.8333 -74.3333 259° West 316 364 16,300 1,440 Climbing New York TRACON
04:09PM 40.8344 -74.4161 271° West 324 373 16,900 360 Climbing New York Center
04:10PM 40.7900 -74.5097 238° Southwest 318 366 17,000  Climbing New York Center
04:11PM 40.7778 -74.6322 263° West 317 365 17,000 600 Level New York Center
04:12PM 40.7844 -74.7422 275° West 324 373 18,300 1,560 Climbing New York Center
04:13PM 40.7883 -74.8739 272° West 329 379 20,200 1,680 Climbing New York Center
04:14PM 40.7967 -74.9925 275° West 335 386 21,700 1,440 Climbing New York Center
04:15PM 40.8044 -75.1217 275° West 340 391 23,200 1,200 Climbing New York Center
04:16PM 40.7900 -75.2250 260° West 351 404 24,200 1,260 Climbing New York Center
04:17PM 40.7575 -75.3653 253° West 357 411 25,800 1,560 Climbing New York Center
04:18PM 40.7106 -75.5017 246° West 363 418 27,300 1,080 Climbing New York Center
04:19PM 40.6658 -75.6300 245° Southwest 376 433 28,000 300 Climbing New York Center
04:20PM 40.6189 -75.7553 244° Southwest 386 444 28,000  Level New York Center
04:21PM 40.5675 -75.8853 243° Southwest 392 451 28,000  Level New York Center
04:22PM 40.5247 -76.0022 244° Southwest 398 458 28,000  Level New York Center
04:23PM 40.4775 -76.1297 244° Southwest 393 452 28,000  Level New York Center
04:24PM 40.4300 -76.2569 244° Southwest 398 458 28,000  Level New York Center
04:25PM 40.3819 -76.3894 245° Southwest 398 458 28,000  Level New York Center
04:26PM 40.3342 -76.5189 244° Southwest 398 458 28,000  Level New York Center
04:27PM 40.2842 -76.6428 242° Southwest 398 458 28,000  Level New York Center
04:28PM 40.2322 -76.7661 241° Southwest 398 458 28,000  Level New York Center
04:29PM 40.1961 -76.8989 250° West 398 458 28,000  Level New York Center
04:30PM 40.1703 -77.0353 256° West 387 445 28,000  Level New York Center
04:31PM 40.1403 -77.1683 254° West 387 445 28,000 -480 Level New York Center
04:32PM 40.1325 -77.3061 266° West 387 445 27,100 -960 Descending New York Center
04:32PM 40.1314 -77.3811 269° West 384 442 26,600 -720 Descending Cleveland Center
04:33PM 40.1269 -77.5186 268° West 383 441 26,000 -960 Descending Cleveland Center
04:34PM 40.1058 -77.6531 258° West 382 440 24,700 -1,740 Descending Cleveland Center
04:35PM 40.0822 -77.7847 257° West 376 433 22,500 -1,320 Descending Cleveland Center
04:36PM 40.0814 -77.9211 270° West 363 418 22,000 -300 Descending Cleveland Center
04:37PM 40.0864 -78.0789 272° West 361 415 22,000  Level Cleveland Center
04:38PM 40.0906 -78.2081 272° West 361 415 22,000  Level Cleveland Center
04:39PM 40.0953 -78.3386 273° West 361 415 22,000  Level Cleveland Center
04:40PM 40.0994 -78.4700 272° West 361 415 22,000  Level Cleveland Center
04:41PM 40.1031 -78.6000 272° West 361 415 22,000  Level Cleveland Center
04:42PM 40.1075 -78.7289 273° West 361 415 22,000 -780 Level Cleveland Center
04:43PM 40.1111 -78.8864 272° West 360 414 20,400 -1,560 Descending Cleveland Center
04:44PM 40.1147 -79.0119 272° West 355 409 18,800 -1,440 Descending Cleveland Center
04:46PM 40.1178 -79.1308 272° West 335 386 17,500 -1,380 Descending Cleveland Center
04:47PM 40.1208 -79.2472 272° West 328 377 16,000 -1,560 Descending Cleveland Center
04:48PM 40.1236 -79.3578 272° West 323 372 14,300 -1,800 Descending Cleveland Center
04:49PM 40.1247 -79.4892 271° West 305 351 12,400 -1,500 Descending Cleveland Center
04:50PM 40.1372 -79.5894 279° West 292 336 11,200 -900 Descending Cleveland Center
04:51PM 40.2169 -79.6231 342° North 302 348 10,600 -600 Descending Cleveland Center
04:52PM 40.2989 -79.6511 345° North 306 352 10,000 -900 Descending Cleveland Center
04:53PM 40.3558 -79.7164 319° Northwest 276 318 8,800 -1,440 Descending Cleveland Center
04:54PM 40.4047 -79.7817 315° West 258 297 7,100 -1,860 Descending Cleveland Center
04:55PM 40.4528 -79.8700 306° West 254 292 5,000 -1,260 Descending Cleveland Center
04:56PM 40.4781 -79.9550 291° West 256 295 4,600 -720 Descending Cleveland Center
04:57PM 40.4803 -80.0372 272° West 232 267 3,600 -960 Descending Cleveland Center
04:58PM 40.4822 -80.1042 272° West 192 221 2,700 -840 Descending Cleveland Center
04:59PM 40.4844 -80.1597 273° West 168 193 1,900 -780 Descending Cleveland Center
05:01PM 40.4833 -80.2167 279° West  Level FlightAware Approximate
05:08PM 40.4914 -80.2327 304° West  Level Estimated